createdAt,value
2019-04-04T00:05:29.376Z,5.97
2019-04-04T00:14:27.422Z,5.53
2019-04-04T00:17:09.645Z,6.07
2019-04-04T00:19:51.935Z,5.43
2019-04-04T00:29:16.782Z,5.53
2019-04-04T00:31:42.483Z,5.47
2019-04-04T00:34:13.822Z,5.57
2019-04-04T00:37:28.128Z,5.60
2019-04-04T00:39:55.508Z,5.40
2019-04-04T00:42:32.902Z,5.60
2019-04-04T00:45:40.820Z,5.80
2019-04-04T00:48:16.887Z,5.77
2019-04-04T00:50:45.540Z,6.70
2019-04-04T00:53:14.142Z,7.00
2019-04-04T00:55:42.971Z,7.23
2019-04-04T00:58:23.348Z,6.60
2019-04-04T01:01:20.953Z,6.47
2019-04-04T01:10:25.161Z,7.80
2019-04-04T01:16:23.093Z,7.77
2019-04-04T01:18:57.126Z,8.40
2019-04-04T01:21:25.927Z,7.93
2019-04-04T01:24:14.376Z,8.70
2019-04-04T01:26:42.982Z,8.10
2019-04-04T01:35:12.248Z,8.90
2019-04-04T01:50:01.320Z,11.00
2019-04-04T01:58:41.745Z,11.27
2019-04-04T02:04:40.117Z,11.77
2019-04-04T02:07:11.732Z,11.73
2019-04-04T02:09:43.462Z,12.37
2019-04-04T02:12:14.361Z,12.43
2019-04-04T02:14:48.866Z,12.47
2019-04-04T02:17:27.152Z,12.90
2019-04-04T03:51:05.132Z,8.47
2019-04-04T03:53:33.942Z,8.57
2019-04-04T03:56:02.718Z,8.33
2019-04-04T03:58:31.428Z,8.87
2019-04-04T04:01:00.057Z,8.60
2019-04-04T04:03:28.595Z,8.87
2019-04-04T04:05:57.247Z,8.20
2019-04-04T04:08:25.840Z,7.93
2019-04-04T04:10:54.459Z,7.53
2019-04-04T04:13:23.258Z,8.53
2019-04-04T04:15:52.119Z,7.47
2019-04-04T04:18:21.734Z,7.90
2019-04-04T04:20:50.798Z,7.53
2019-04-04T04:23:22.901Z,7.47
2019-04-04T04:25:49.876Z,7.40
2019-04-04T04:28:53.493Z,7.50
2019-04-04T04:34:32.801Z,7.93
2019-04-04T04:46:01.256Z,7.33
2019-04-04T04:48:44.520Z,8.03
2019-04-04T04:53:19.658Z,7.13
2019-04-04T05:20:39.852Z,8.83
2019-04-04T05:23:10.978Z,8.80
2019-04-04T05:25:51.636Z,8.63
2019-04-04T05:28:10.814Z,10.50
2019-04-04T05:30:39.497Z,9.17
2019-04-04T05:33:08.111Z,8.67
2019-04-04T05:35:38.387Z,9.97
2019-04-04T05:38:20.596Z,10.20
2019-04-04T05:40:48.512Z,9.93
2019-04-04T05:43:17.167Z,10.20
2019-04-04T05:45:47.784Z,9.90
2019-04-04T05:48:16.636Z,10.47
2019-04-04T05:50:45.318Z,11.40
2019-04-04T05:53:14.037Z,11.17
2019-04-04T05:55:42.786Z,11.43
2019-04-04T05:58:11.359Z,11.57
2019-04-04T06:00:41.775Z,11.50
2019-04-04T06:03:10.481Z,11.27
2019-04-04T06:05:39.148Z,11.90
2019-04-04T06:08:08.173Z,11.27
2019-04-04T06:10:37.565Z,12.70
2019-04-04T06:13:06.210Z,13.37
2019-04-04T06:15:34.745Z,13.83
2019-04-04T06:18:03.644Z,15.47
2019-04-04T06:20:32.194Z,15.07
2019-04-04T06:23:00.922Z,13.87
2019-04-04T06:25:34.291Z,15.17
2019-04-04T06:28:01.678Z,14.37
2019-04-04T06:30:42.518Z,16.03
2019-04-04T06:33:03.933Z,14.97
2019-04-04T06:35:31.090Z,16.07
2019-04-04T06:37:59.765Z,18.80
2019-04-04T06:40:30.321Z,20.43
2019-04-04T06:42:59.101Z,18.50
2019-04-04T06:45:29.710Z,16.17
2019-04-04T06:47:58.298Z,15.60
2019-04-04T06:50:27.041Z,15.63
2019-04-04T06:52:56.725Z,16.07
2019-04-04T06:55:28.476Z,15.73
2019-04-04T06:57:55.668Z,15.47
2019-04-04T07:00:24.376Z,22.63
2019-04-04T07:02:55.149Z,21.07
2019-04-04T07:05:23.337Z,18.57
2019-04-04T07:07:51.902Z,21.03
2019-04-04T07:10:21.736Z,20.27
2019-04-04T07:12:50.561Z,21.33
2019-04-04T07:15:19.220Z,22.37
2019-04-04T07:17:47.927Z,23.33
2019-04-04T07:20:17.027Z,23.73
2019-04-04T07:22:46.111Z,22.77
2019-04-04T07:25:14.887Z,22.90
2019-04-04T07:27:45.301Z,22.40
2019-04-04T07:30:15.425Z,19.73
2019-04-04T07:32:44.201Z,20.67
2019-04-04T07:35:13.067Z,20.27
2019-04-04T07:37:41.611Z,19.03
2019-04-04T07:40:10.662Z,18.17
2019-04-04T07:42:40.311Z,19.47
2019-04-04T07:45:09.701Z,19.13
2019-04-04T07:47:38.273Z,17.80
2019-04-04T07:50:07.332Z,16.53
2019-04-04T07:52:35.965Z,15.23
2019-04-04T07:55:05.781Z,15.87
2019-04-04T07:57:35.837Z,12.70
2019-04-04T08:00:07.104Z,14.53
2019-04-04T08:02:35.765Z,13.67
2019-04-04T08:05:06.260Z,14.47
2019-04-04T08:07:35.365Z,9.83
2019-04-04T08:10:06.212Z,10.90
2019-04-04T08:12:34.996Z,9.83
2019-04-04T08:15:04.855Z,10.13
2019-04-04T08:17:33.604Z,9.27
2019-04-04T08:20:02.283Z,9.33
2019-04-04T08:22:30.900Z,8.67
2019-04-04T08:24:59.499Z,8.10
2019-04-04T08:27:28.134Z,8.53
2019-04-04T08:29:56.682Z,7.73
2019-04-04T08:32:25.289Z,8.10
2019-04-04T08:34:54.005Z,7.53
2019-04-04T08:37:23.517Z,7.33
2019-04-04T08:39:52.321Z,6.40
2019-04-04T08:42:20.934Z,6.57
2019-04-04T08:44:49.607Z,7.00
2019-04-04T08:47:18.382Z,6.37
2019-04-04T08:49:46.978Z,5.93
2019-04-04T08:52:17.277Z,5.90
2019-04-04T08:54:45.875Z,7.37
2019-04-04T08:57:14.531Z,7.93
2019-04-04T08:59:43.103Z,7.13
2019-04-04T09:02:11.765Z,8.20
2019-04-04T09:04:40.369Z,7.43
2019-04-04T09:07:08.951Z,7.03
2019-04-04T09:09:37.775Z,6.73
2019-04-04T09:12:06.381Z,6.90
2019-04-04T09:14:35.125Z,7.03
2019-04-04T09:17:03.896Z,6.90
2019-04-04T09:19:32.647Z,7.43
2019-04-04T09:22:01.196Z,6.97
2019-04-04T09:24:29.952Z,6.67
2019-04-04T09:26:58.580Z,6.83
2019-04-04T09:29:27.219Z,6.37
2019-04-04T09:31:55.887Z,5.80
2019-04-04T09:34:24.539Z,5.43
2019-04-04T09:36:53.324Z,6.17
2019-04-04T09:39:22.007Z,6.03
2019-04-04T09:41:50.731Z,5.90
2019-04-04T09:44:19.345Z,4.90
2019-04-04T09:46:47.973Z,5.43
2019-04-04T09:49:16.561Z,5.57
2019-04-04T09:51:45.203Z,5.70
2019-04-04T09:54:14.081Z,5.43
2019-04-04T09:56:42.770Z,5.47
2019-04-04T09:59:11.530Z,4.73
2019-04-04T10:01:40.753Z,5.87
2019-04-04T10:04:09.633Z,5.30
2019-04-04T10:06:38.627Z,5.47
2019-04-04T10:09:15.445Z,5.37
2019-04-04T10:11:38.573Z,5.53
2019-04-04T10:14:07.410Z,4.87
2019-04-04T10:16:36.524Z,4.70
2019-04-04T10:19:08.797Z,5.40
2019-04-04T10:21:37.457Z,4.40
2019-04-04T10:24:06.453Z,4.60
2019-04-04T10:26:35.313Z,4.57
2019-04-04T10:29:04.077Z,4.50
2019-04-04T10:31:32.899Z,3.90
2019-04-04T10:34:01.612Z,3.50
2019-04-04T10:36:30.933Z,3.00
2019-04-04T10:39:01.529Z,4.00
2019-04-04T10:41:36.055Z,4.50
2019-04-04T10:44:00.673Z,3.47
2019-04-04T10:46:31.128Z,3.33
2019-04-04T10:48:59.744Z,3.80
2019-04-04T10:51:33.531Z,3.40
2019-04-04T10:54:02.320Z,3.40
2019-04-04T10:56:30.960Z,2.73
2019-04-04T10:58:59.504Z,3.30
2019-04-04T11:01:28.141Z,3.77
2019-04-04T11:03:56.735Z,3.50
2019-04-04T11:06:25.266Z,3.23
2019-04-04T11:08:53.969Z,3.40
2019-04-04T11:11:22.603Z,4.47
2019-04-04T11:13:51.270Z,4.23
2019-04-04T11:16:29.505Z,3.70
2019-04-04T11:18:50.187Z,3.50
2019-04-04T11:21:18.833Z,3.43
2019-04-04T11:23:47.517Z,3.73
2019-04-04T11:26:16.126Z,4.37
2019-04-04T11:28:44.798Z,3.80
2019-04-04T11:31:13.447Z,3.90
2019-04-04T11:33:42.273Z,3.70
2019-04-04T11:36:10.990Z,4.07
2019-04-04T11:38:39.745Z,3.80
2019-04-04T11:41:08.680Z,3.97
2019-04-04T11:43:37.497Z,4.07
2019-04-04T11:46:08.799Z,3.63
2019-04-04T11:48:37.419Z,4.13
2019-04-04T11:51:09.352Z,3.50
2019-04-04T11:53:37.894Z,4.70
2019-04-04T11:56:06.645Z,4.45
2019-04-04T11:58:35.337Z,4.50
2019-04-04T12:01:09.133Z,4.37
2019-04-04T12:03:37.810Z,3.97
2019-04-04T12:06:06.659Z,4.47
2019-04-04T12:08:35.361Z,5.00
2019-04-04T12:11:04.119Z,4.10
2019-04-04T12:13:32.783Z,4.27
2019-04-04T12:16:01.473Z,4.17
2019-04-04T12:18:30.041Z,4.40
2019-04-04T12:20:58.659Z,4.50
2019-04-04T12:23:27.215Z,4.13
2019-04-04T12:25:55.843Z,4.10
2019-04-04T12:28:24.434Z,4.37
2019-04-04T12:30:53.163Z,4.57
2019-04-04T12:33:21.810Z,4.77
2019-04-04T12:35:52.457Z,4.13
2019-04-04T12:38:20.592Z,4.50
2019-04-04T12:40:49.177Z,4.70
2019-04-04T12:43:17.777Z,5.03
2019-04-04T12:45:46.427Z,5.20
2019-04-04T12:48:15.099Z,5.87
2019-04-04T12:50:43.993Z,5.73
2019-04-04T12:53:12.492Z,6.07
2019-04-04T12:55:41.221Z,5.83
2019-04-04T12:58:10.949Z,5.77
2019-04-04T13:00:39.696Z,5.67
2019-04-04T13:03:08.359Z,6.43
2019-04-04T13:05:38.139Z,6.47
2019-04-04T13:08:06.796Z,5.07
2019-04-04T13:10:35.572Z,4.80
2019-04-04T13:13:04.393Z,5.20
2019-04-04T13:15:33.021Z,5.13
2019-04-04T13:18:01.711Z,4.93
2019-04-04T13:20:30.313Z,5.00
2019-04-04T13:22:59.078Z,4.60
2019-04-04T13:25:27.697Z,4.10
2019-04-04T13:27:56.497Z,4.40
2019-04-04T13:30:25.219Z,4.80
2019-04-04T13:32:53.857Z,4.57
2019-04-04T13:35:22.507Z,4.80
2019-04-04T13:37:51.135Z,4.87
2019-04-04T13:40:19.831Z,4.57
2019-04-04T13:42:48.510Z,4.30
2019-04-04T13:45:17.321Z,5.20
2019-04-04T13:47:46.264Z,5.03
2019-04-04T13:50:19.679Z,4.83
2019-04-04T13:52:45.482Z,4.77
2019-04-04T13:55:14.147Z,4.27
2019-04-04T13:57:42.833Z,3.87
2019-04-04T14:00:11.920Z,4.70
2019-04-04T14:02:40.523Z,4.57
2019-04-04T14:05:12.526Z,4.40
2019-04-04T14:07:39.806Z,4.30
2019-04-04T14:10:08.563Z,4.67
2019-04-04T14:12:37.193Z,5.20
2019-04-04T14:15:10.026Z,3.07
2019-04-04T14:17:38.635Z,3.53
2019-04-04T14:20:09.065Z,4.33
2019-04-04T14:22:37.779Z,4.30
2019-04-04T14:25:07.251Z,4.13
2019-04-04T14:27:38.115Z,4.17
2019-04-04T14:30:08.185Z,3.80
2019-04-04T14:32:36.670Z,4.73
2019-04-04T14:35:07.159Z,4.20
2019-04-04T14:37:35.851Z,3.90
2019-04-04T14:40:06.559Z,3.87
2019-04-04T14:42:35.275Z,3.50
2019-04-04T14:45:06.560Z,3.67
2019-04-04T14:47:35.273Z,4.13
2019-04-04T14:50:06.137Z,4.17
2019-04-04T14:52:34.843Z,4.23
2019-04-04T14:58:02.079Z,3.63
2019-04-04T15:00:31.251Z,4.20
2019-04-04T15:03:00.919Z,4.60
2019-04-04T15:05:29.774Z,4.73
2019-04-04T15:08:00.900Z,4.00
2019-04-04T15:10:28.911Z,4.63
2019-04-04T15:12:57.553Z,4.17
2019-04-04T15:15:26.563Z,4.03
2019-04-04T15:17:55.355Z,4.00
2019-04-04T15:20:32.968Z,4.47
2019-04-04T15:23:01.732Z,4.50
2019-04-04T15:25:30.339Z,4.07
2019-04-04T15:27:59.185Z,4.13
2019-04-04T15:30:27.741Z,3.70
2019-04-04T15:32:56.405Z,3.50
2019-04-04T15:35:25.146Z,4.03
2019-04-04T15:37:53.861Z,3.47
2019-04-04T15:40:22.528Z,3.77
2019-04-04T15:42:51.285Z,4.72
2019-04-04T15:45:19.923Z,3.83
2019-04-04T15:47:48.859Z,4.17
2019-04-04T15:50:20.158Z,4.13
2019-04-04T15:52:48.993Z,3.80
2019-04-04T15:55:20.595Z,4.00
2019-04-04T15:57:49.181Z,3.60
2019-04-04T16:00:18.078Z,3.93
2019-04-04T16:02:46.766Z,3.80
2019-04-04T16:05:15.594Z,4.53
2019-04-04T16:07:44.219Z,3.73
2019-04-04T16:10:13.053Z,3.97
2019-04-04T16:12:45.385Z,3.70
2019-04-04T16:15:14.141Z,3.93
2019-04-04T16:17:42.782Z,4.07
2019-04-04T16:20:12.031Z,4.13
2019-04-04T16:22:40.700Z,4.20
2019-04-04T16:25:09.557Z,4.50
2019-04-04T16:27:38.314Z,3.87
2019-04-04T16:30:08.367Z,4.47
2019-04-04T16:32:37.166Z,3.60
2019-04-04T16:35:06.792Z,3.90
2019-04-04T16:37:35.449Z,4.93
2019-04-04T16:40:09.264Z,3.93
2019-04-04T16:42:36.070Z,4.40
2019-04-04T16:45:07.680Z,3.60
2019-04-04T16:47:36.505Z,3.80
2019-04-04T16:50:09.376Z,3.63
2019-04-04T16:52:38.205Z,4.40
2019-04-04T16:55:07.581Z,4.23
2019-04-04T16:57:36.363Z,4.07
2019-04-04T17:00:11.043Z,4.33
2019-04-04T17:02:41.320Z,4.20
2019-04-04T17:05:11.055Z,4.73
2019-04-04T17:07:40.359Z,4.80
2019-04-04T17:10:09.585Z,4.50
2019-04-04T17:12:38.513Z,4.63
2019-04-04T17:15:07.656Z,4.37
2019-04-04T17:17:40.246Z,5.00
2019-04-04T17:20:09.356Z,5.00
2019-04-04T17:22:46.569Z,4.47
2019-04-04T17:25:16.114Z,4.83
2019-04-04T17:27:46.523Z,4.70
2019-04-04T17:30:16.048Z,5.53
2019-04-04T17:32:47.487Z,5.70
2019-04-04T17:35:14.957Z,4.93
2019-04-04T17:37:43.609Z,4.83
2019-04-04T17:40:12.967Z,10.90
2019-04-04T17:42:41.775Z,7.00
2019-04-04T17:45:11.608Z,6.47
2019-04-04T17:47:40.777Z,5.40
2019-04-04T17:50:11.238Z,5.53
2019-04-04T17:52:40.191Z,5.07
2019-04-04T17:55:09.729Z,5.07
2019-04-04T17:57:38.502Z,4.97
2019-04-04T18:00:11.274Z,5.80
2019-04-04T18:02:40.575Z,5.30
2019-04-04T18:05:11.178Z,5.60
2019-04-04T18:07:40.028Z,9.00
2019-04-04T18:10:10.126Z,5.43
2019-04-04T18:12:41.005Z,5.67
2019-04-04T18:15:10.209Z,5.80
2019-04-04T18:17:38.906Z,5.53
2019-04-04T18:20:08.985Z,5.77
2019-04-04T18:22:37.712Z,6.30
2019-04-04T18:25:07.587Z,5.90
2019-04-04T18:27:36.506Z,6.47
2019-04-04T18:30:12.005Z,6.13
2019-04-04T18:32:41.305Z,6.47
2019-04-04T18:35:10.587Z,7.47
2019-04-04T18:37:39.504Z,8.50
2019-04-04T18:40:09.310Z,10.57
2019-04-04T18:42:52.172Z,10.63
2019-04-04T18:45:26.932Z,9.63
2019-04-04T18:48:06.875Z,7.70
2019-04-04T18:50:46.626Z,7.20
2019-04-04T18:53:29.775Z,7.00
2019-04-04T18:56:00.209Z,7.27
2019-04-04T18:58:31.108Z,7.70
2019-04-04T19:00:59.904Z,7.47
2019-04-04T19:03:31.398Z,7.27
2019-04-04T19:06:06.106Z,5.93
2019-04-04T19:08:31.960Z,6.70
2019-04-04T19:11:00.644Z,6.37
2019-04-04T19:13:29.458Z,5.83
2019-04-04T19:15:58.188Z,5.73
2019-04-04T19:18:26.991Z,6.90
2019-04-04T19:20:55.669Z,6.07
2019-04-04T19:23:24.342Z,5.90
2019-04-04T19:25:53.171Z,5.87
2019-04-04T19:28:21.952Z,6.70
2019-04-04T19:30:51.634Z,7.20
2019-04-04T19:33:20.368Z,7.30
2019-04-04T19:35:49.166Z,6.07
2019-04-04T19:38:17.772Z,6.30
2019-04-04T19:40:46.672Z,6.83
2019-04-04T19:43:20.968Z,6.30
2019-04-04T19:48:54.152Z,6.60
2019-04-04T19:51:23.077Z,6.33
2019-04-04T19:53:51.835Z,7.03
2019-04-04T19:56:25.192Z,6.60
2019-04-04T19:58:53.790Z,6.53
2019-04-04T20:01:25.672Z,6.23
2019-04-04T20:03:54.517Z,6.53
2019-04-04T20:06:23.061Z,7.03
2019-04-04T20:08:53.650Z,7.30
2019-04-04T20:11:22.212Z,6.57
2019-04-04T20:14:01.087Z,6.60
2019-04-04T20:16:29.925Z,5.67
2019-04-04T20:18:58.666Z,6.40
2019-04-04T20:21:27.339Z,6.27
2019-04-04T20:23:58.002Z,6.80
2019-04-04T20:26:26.748Z,6.60
2019-04-04T20:28:55.338Z,7.13
2019-04-04T20:31:24.054Z,6.30
2019-04-04T20:34:01.468Z,6.30
2019-04-04T20:36:23.077Z,6.90
2019-04-04T20:38:51.840Z,6.70
2019-04-04T20:41:22.144Z,7.03
2019-04-04T20:44:27.222Z,6.60
2019-04-04T20:46:47.658Z,6.30
2019-04-04T20:49:27.821Z,6.57
2019-04-04T20:52:07.237Z,7.23
2019-04-04T20:54:37.951Z,7.17
2019-04-04T20:59:59.046Z,7.07
2019-04-04T21:02:27.848Z,6.77
2019-04-04T21:04:59.425Z,7.03
2019-04-04T21:07:28.869Z,6.90
2019-04-04T21:10:00.434Z,7.60
2019-04-04T21:12:29.168Z,7.57
